createdAt,value
2023-03-21T00:02:20.707Z,4.70
2023-03-21T00:06:25.091Z,3.30
2023-03-21T00:10:39.517Z,3.20
2023-03-21T00:14:44.759Z,3.07
2023-03-21T00:18:49.011Z,3.90
2023-03-21T00:22:53.037Z,4.57
2023-03-21T00:27:03.498Z,4.00
2023-03-21T00:31:19.230Z,3.87
2023-03-21T00:35:53.650Z,3.43
2023-03-21T00:39:48.999Z,3.60
2023-03-21T00:43:51.979Z,5.30
2023-03-21T00:47:54.820Z,4.77
2023-03-21T00:52:08.535Z,5.23
2023-03-21T00:56:16.520Z,3.80
2023-03-21T01:00:20.461Z,3.40
2023-03-21T01:04:26.753Z,3.13
2023-03-21T01:08:38.193Z,4.13
2023-03-21T01:12:49.113Z,4.23
2023-03-21T01:16:53.020Z,3.07
2023-03-21T01:20:58.037Z,4.30
2023-03-21T01:25:12.191Z,5.03
2023-03-21T01:29:23.826Z,4.37
2023-03-21T01:33:27.130Z,3.40
2023-03-21T01:37:30.531Z,5.67
2023-03-21T01:41:42.945Z,3.00
2023-03-21T01:46:23.475Z,5.37
2023-03-21T01:50:27.023Z,4.13
2023-03-21T01:54:34.456Z,4.53
2023-03-21T01:58:37.616Z,3.93
2023-03-21T02:02:52.214Z,2.83
2023-03-21T02:06:58.971Z,6.10
2023-03-21T02:11:01.955Z,3.53
2023-03-21T02:15:07.455Z,3.27
2023-03-21T02:19:39.276Z,4.50
2023-03-21T02:24:19.676Z,4.30
2023-03-21T02:28:26.060Z,5.33
2023-03-21T02:32:39.147Z,2.87
2023-03-21T02:36:54.317Z,3.57
2023-03-21T02:41:10.111Z,3.40
2023-03-21T02:45:19.946Z,3.73
2023-03-21T02:49:26.079Z,5.30
2023-03-21T02:53:34.443Z,4.53
2023-03-21T02:57:43.136Z,3.90
2023-03-21T03:01:46.891Z,4.50
2023-03-21T03:05:51.824Z,4.30
2023-03-21T03:10:13.871Z,7.37
2023-03-21T03:14:52.730Z,3.17
2023-03-21T03:18:59.383Z,4.00
2023-03-21T03:23:12.041Z,5.67
2023-03-21T03:27:19.746Z,8.80
2023-03-21T03:31:26.063Z,4.83
2023-03-21T03:35:31.432Z,5.37
2023-03-21T03:39:37.332Z,4.70
2023-03-21T03:43:44.601Z,3.47
2023-03-21T03:47:57.300Z,3.93
2023-03-21T03:52:03.249Z,4.97
2023-03-21T03:56:09.680Z,3.70
2023-03-21T04:00:18.639Z,4.27
2023-03-21T04:04:22.817Z,5.13
2023-03-21T04:08:25.569Z,4.47
2023-03-21T04:12:28.227Z,3.97
2023-03-21T04:16:35.198Z,3.93
2023-03-21T04:20:38.425Z,4.33
2023-03-21T04:24:42.381Z,3.47
2023-03-21T04:28:45.045Z,3.17
2023-03-21T04:32:54.126Z,4.53
2023-03-21T04:36:57.361Z,4.87
2023-03-21T04:41:00.023Z,4.00
2023-03-21T04:45:03.220Z,4.43
2023-03-21T04:49:07.959Z,4.60
2023-03-21T04:53:10.722Z,3.57
2023-03-21T04:57:13.730Z,5.43
2023-03-21T05:01:20.738Z,3.30
2023-03-21T05:05:29.878Z,5.30
2023-03-21T05:09:32.628Z,5.60
2023-03-21T05:13:35.404Z,4.63
2023-03-21T05:17:38.138Z,5.80
2023-03-21T05:21:42.716Z,3.10
2023-03-21T05:25:45.839Z,3.97
2023-03-21T05:29:50.222Z,2.97
2023-03-21T05:33:52.799Z,2.90
2023-03-21T05:37:56.898Z,3.77
2023-03-21T05:41:59.535Z,3.00
2023-03-21T05:46:02.492Z,4.40
2023-03-21T05:50:06.819Z,3.90
2023-03-21T05:54:16.572Z,8.03
2023-03-21T05:58:19.246Z,5.93
2023-03-21T06:02:22.046Z,4.33
2023-03-21T06:06:24.719Z,3.97
2023-03-21T06:10:29.008Z,3.30
2023-03-21T06:14:31.626Z,5.63
2023-03-21T06:18:34.277Z,4.07
2023-03-21T06:22:37.355Z,4.33
2023-03-21T06:26:42.756Z,4.97
2023-03-21T06:30:45.601Z,6.17
2023-03-21T06:34:48.302Z,4.63
2023-03-21T06:38:51.032Z,4.40
2023-03-21T06:42:55.153Z,4.13
2023-03-21T06:46:58.235Z,3.73
2023-03-21T06:51:01.179Z,4.30
2023-03-21T06:55:03.842Z,5.67
2023-03-21T06:59:11.403Z,3.83
2023-03-21T07:03:14.696Z,6.03
2023-03-21T07:07:17.433Z,7.43
2023-03-21T07:11:20.814Z,7.10
2023-03-21T07:15:25.122Z,7.33
2023-03-21T07:19:27.829Z,5.67
2023-03-21T07:23:31.241Z,5.17
2023-03-21T07:27:33.895Z,5.97
2023-03-21T07:31:39.938Z,3.90
2023-03-21T07:35:42.951Z,4.90
2023-03-21T07:39:45.631Z,4.23
2023-03-21T07:43:48.284Z,4.23
2023-03-21T07:47:53.017Z,3.53
2023-03-21T07:51:55.700Z,4.13
2023-03-21T07:55:58.608Z,3.70
2023-03-21T08:00:01.282Z,7.73
2023-03-21T08:04:05.662Z,5.43
2023-03-21T08:08:08.606Z,5.97
2023-03-21T08:12:12.127Z,7.07
2023-03-21T08:16:14.823Z,8.67
2023-03-21T08:20:22.245Z,7.37
2023-03-21T08:24:24.884Z,5.73
2023-03-21T08:28:27.817Z,3.40
2023-03-21T08:32:31.092Z,4.67
2023-03-21T08:36:36.855Z,6.50
2023-03-21T08:40:39.646Z,9.00
2023-03-21T08:44:42.564Z,4.10
2023-03-21T08:48:45.241Z,4.67
2023-03-21T08:52:50.168Z,6.17
2023-03-21T08:56:53.121Z,5.23
2023-03-21T09:00:56.410Z,4.60
2023-03-21T09:04:59.212Z,6.03
2023-03-21T09:09:05.775Z,5.30
2023-03-21T09:13:08.445Z,5.00
2023-03-21T09:17:11.582Z,4.40
2023-03-21T09:21:15.299Z,5.03
2023-03-21T09:25:20.681Z,9.77
2023-03-21T09:29:23.442Z,5.63
2023-03-21T09:33:28.706Z,7.37
2023-03-21T09:37:34.063Z,5.83
2023-03-21T09:41:53.108Z,4.80
2023-03-21T09:45:59.784Z,3.13
2023-03-21T09:50:14.085Z,6.10
2023-03-21T09:54:22.358Z,4.03
2023-03-21T09:58:29.019Z,3.30
2023-03-21T10:02:38.243Z,4.93
2023-03-21T10:06:42.800Z,5.70
2023-03-21T10:10:49.042Z,4.67
2023-03-21T10:14:57.445Z,4.33
2023-03-21T10:19:01.221Z,3.17
2023-03-21T10:23:06.714Z,3.27
2023-03-21T10:27:13.174Z,3.23
2023-03-21T10:31:22.398Z,4.13
2023-03-21T10:35:25.103Z,3.47
2023-03-21T10:39:29.354Z,3.13
2023-03-21T10:43:37.770Z,3.37
2023-03-21T10:47:42.187Z,4.07
2023-03-21T10:51:46.329Z,2.83
2023-03-21T10:55:52.208Z,4.83
2023-03-21T10:59:57.899Z,4.27
2023-03-21T11:04:02.903Z,3.47
2023-03-21T11:08:07.928Z,5.40
2023-03-21T11:12:12.648Z,4.27
2023-03-21T11:16:24.650Z,4.20
2023-03-21T11:20:31.697Z,4.67
2023-03-21T11:24:35.224Z,3.27
2023-03-21T11:28:39.610Z,3.93
2023-03-21T11:32:43.635Z,3.93
2023-03-21T11:36:51.882Z,4.60
2023-03-21T11:40:58.305Z,4.60
2023-03-21T11:45:12.912Z,3.80
2023-03-21T11:49:15.584Z,3.57
2023-03-21T11:53:27.912Z,4.23
2023-03-21T11:57:34.362Z,3.77
2023-03-21T12:01:43.213Z,4.13
2023-03-21T12:05:54.372Z,4.27
2023-03-21T12:10:23.243Z,4.10
2023-03-21T12:14:30.875Z,3.70
2023-03-21T12:18:56.666Z,2.83
2023-03-21T12:23:14.395Z,5.80
2023-03-21T12:27:25.422Z,6.03
2023-03-21T12:31:36.029Z,21.60
2023-03-21T12:35:51.804Z,3.97
2023-03-21T12:39:57.107Z,3.60
2023-03-21T12:44:05.310Z,3.10
2023-03-21T12:48:18.975Z,3.70
2023-03-21T12:52:25.083Z,3.57
2023-03-21T12:56:31.607Z,2.90
2023-03-21T13:00:39.920Z,2.57
2023-03-21T13:04:47.120Z,3.43
2023-03-21T13:08:52.764Z,2.57
2023-03-21T13:13:09.845Z,4.10
2023-03-21T13:17:20.575Z,3.27
2023-03-21T13:21:32.726Z,3.17
2023-03-21T13:25:43.069Z,3.47
2023-03-21T13:29:47.736Z,2.77
2023-03-21T13:33:53.118Z,3.57
2023-03-21T13:37:59.991Z,2.30
2023-03-21T13:42:06.432Z,3.07
2023-03-21T13:46:10.955Z,2.83
2023-03-21T13:50:27.651Z,3.50
2023-03-21T13:54:45.850Z,3.13
2023-03-21T13:59:02.532Z,3.80
2023-03-21T14:03:09.574Z,3.13
2023-03-21T14:07:16.653Z,2.63
2023-03-21T14:11:21.166Z,3.50
2023-03-21T14:15:25.745Z,3.43
2023-03-21T14:19:32.975Z,4.37
2023-03-21T14:23:39.776Z,4.10
2023-03-21T14:27:44.587Z,2.80
2023-03-21T14:31:48.624Z,3.90
2023-03-21T14:35:51.686Z,3.63
2023-03-21T14:40:00.761Z,3.23
2023-03-21T14:44:10.181Z,2.90
2023-03-21T14:48:18.812Z,3.20
2023-03-21T14:52:23.806Z,3.23
2023-03-21T14:56:28.042Z,3.13
2023-03-21T15:00:31.654Z,5.23
2023-03-21T15:04:34.529Z,3.50
2023-03-21T15:08:37.630Z,4.20
2023-03-21T15:12:51.126Z,3.40
2023-03-21T15:16:54.909Z,3.73
2023-03-21T15:20:59.880Z,2.73
2023-03-21T15:25:09.725Z,3.40
2023-03-21T15:29:15.075Z,3.30
2023-03-21T15:33:18.365Z,3.50
2023-03-21T15:37:24.840Z,3.93
2023-03-21T15:41:29.662Z,3.03
2023-03-21T15:45:34.444Z,3.03
2023-03-21T15:49:41.578Z,3.47
2023-03-21T15:53:44.607Z,3.63
2023-03-21T15:57:50.109Z,5.97
2023-03-21T16:01:54.283Z,6.20
2023-03-21T16:06:10.788Z,5.03
2023-03-21T16:10:31.529Z,4.70
2023-03-21T16:14:34.246Z,4.87
2023-03-21T16:18:40.183Z,3.80
2023-03-21T16:22:43.125Z,3.70
2023-03-21T16:26:50.955Z,4.57
2023-03-21T16:30:53.701Z,4.17
2023-03-21T16:34:57.875Z,4.23
2023-03-21T16:39:01.232Z,3.97
2023-03-21T16:43:04.107Z,3.53
2023-03-21T16:47:15.371Z,3.27
2023-03-21T16:51:21.580Z,4.13
2023-03-21T16:55:24.693Z,3.00
2023-03-21T16:59:27.403Z,4.17
2023-03-21T17:03:30.469Z,4.13
2023-03-21T17:07:34.536Z,2.83
2023-03-21T17:11:41.667Z,6.00
2023-03-21T17:15:44.444Z,7.73
2023-03-21T17:19:47.441Z,6.13
2023-03-21T17:23:51.907Z,4.47
2023-03-21T17:27:54.852Z,4.23
2023-03-21T17:31:57.811Z,5.50
2023-03-21T17:36:00.840Z,5.90
2023-03-21T17:40:09.466Z,7.67
2023-03-21T17:44:13.041Z,6.10
2023-03-21T17:48:16.329Z,6.80
2023-03-21T17:52:19.143Z,12.83
2023-03-21T17:56:26.897Z,13.00
2023-03-21T18:00:31.480Z,5.27
2023-03-21T18:04:34.263Z,9.67
2023-03-21T18:08:37.071Z,5.07
2023-03-21T18:12:42.116Z,9.80
2023-03-21T18:16:44.952Z,38.57
2023-03-21T18:20:53.637Z,12.07
2023-03-21T18:24:57.678Z,11.30
2023-03-21T18:30:00.381Z,26.07
2023-03-21T18:33:27.241Z,10.67
2023-03-21T18:37:31.793Z,6.77
2023-03-21T18:41:34.981Z,7.60
2023-03-21T18:45:39.496Z,7.43
2023-03-21T18:50:13.219Z,9.17
2023-03-21T18:54:05.671Z,8.70
2023-03-21T18:58:08.641Z,6.90
2023-03-21T19:02:14.617Z,9.10
2023-03-21T19:06:17.773Z,10.60
2023-03-21T19:10:22.839Z,18.83
2023-03-21T19:14:26.177Z,43.67
2023-03-21T19:18:50.396Z,37.67
2023-03-21T19:22:54.459Z,15.10
2023-03-21T19:26:57.686Z,8.90
2023-03-21T19:31:05.079Z,8.13
2023-03-21T19:35:09.831Z,8.27
2023-03-21T19:39:13.292Z,10.33
2023-03-21T19:43:32.198Z,10.20
2023-03-21T19:47:35.925Z,7.80
2023-03-21T19:51:39.990Z,7.23
2023-03-21T19:55:43.016Z,8.53
2023-03-21T19:59:45.754Z,9.67
2023-03-21T20:03:49.988Z,6.97
2023-03-21T20:07:55.332Z,6.20
2023-03-21T20:12:00.647Z,5.83
2023-03-21T20:16:04.107Z,6.63
2023-03-21T20:20:16.961Z,6.23
2023-03-21T20:24:21.029Z,6.60
2023-03-21T20:28:27.096Z,7.73
2023-03-21T20:32:31.529Z,11.40
2023-03-21T20:36:43.408Z,12.70
2023-03-21T20:40:48.057Z,7.63
2023-03-21T20:44:58.693Z,6.60
2023-03-21T20:49:02.079Z,6.83
2023-03-21T20:53:07.519Z,6.57
2023-03-21T20:57:12.198Z,6.67
2023-03-21T21:01:16.961Z,6.53
2023-03-21T21:05:35.684Z,6.10
2023-03-21T21:09:39.999Z,5.37
2023-03-21T21:13:44.208Z,5.50
2023-03-21T21:22:11.253Z,6.73
2023-03-21T21:26:14.154Z,7.90
2023-03-21T21:30:18.704Z,9.17
2023-03-21T21:34:21.988Z,8.10
2023-03-21T21:38:24.947Z,9.03
2023-03-21T21:42:28.322Z,9.47
2023-03-21T21:46:33.046Z,8.00
2023-03-21T21:50:38.979Z,8.27
2023-03-21T21:54:45.663Z,7.87
2023-03-21T21:58:48.756Z,8.57
2023-03-21T22:02:52.890Z,9.13
2023-03-21T22:06:55.985Z,9.33
2023-03-21T22:11:00.622Z,9.00
2023-03-21T22:15:03.948Z,9.10
2023-03-21T22:19:07.956Z,9.40
2023-03-21T22:23:10.631Z,10.23
2023-03-21T22:27:13.446Z,8.50
2023-03-21T22:31:17.576Z,9.67
2023-03-21T22:35:21.840Z,9.10
2023-03-21T22:39:26.341Z,8.30
2023-03-21T22:43:33.981Z,9.60
2023-03-21T22:47:37.150Z,9.37
2023-03-21T22:51:44.726Z,9.13
2023-03-21T22:55:47.721Z,9.00
2023-03-21T22:59:50.603Z,8.70
2023-03-21T23:03:53.277Z,8.67
2023-03-21T23:07:57.361Z,8.47
2023-03-21T23:12:00.032Z,9.17
2023-03-21T23:16:04.820Z,9.50
2023-03-21T23:20:09.481Z,9.83
2023-03-21T23:24:14.363Z,11.00
2023-03-21T23:28:17.058Z,9.80
2023-03-21T23:32:20.053Z,10.60
2023-03-21T23:36:23.348Z,10.63
2023-03-21T23:40:27.662Z,11.30
2023-03-21T23:44:30.320Z,11.60
2023-03-21T23:48:33.655Z,11.73
2023-03-21T23:52:36.846Z,11.53
2023-03-21T23:56:41.835Z,10.50
